Airports Germany Munich Airport

Munich Airport (EDDM / MUC)

Facts about Munich Airport

Name Munich Airport
City Munich
Country Germany
ICAO code EDDM
IATA code MUC
Elevation 453.2376 meters (1487 feet)

Weather

METAR

Metar data retrieved Saturday, 20 July 2024 at 00:25 UTC (12 minutes ago)

EDDM 200020Z AUTO VRB01KT CAVOK 19/18 Q1015 NOSIG

Live traffic

Navigraph Charts (account required)